createdAt,value
2023-04-08T00:00:47.242Z,13.00
2023-04-08T00:03:14.132Z,12.17
2023-04-08T00:05:41.247Z,13.33
2023-04-08T00:08:08.331Z,13.67
2023-04-08T00:10:35.296Z,11.90
2023-04-08T00:13:02.292Z,12.07
2023-04-08T00:15:29.071Z,12.83
2023-04-08T00:17:55.958Z,13.43
2023-04-08T00:20:24.513Z,11.70
2023-04-08T00:22:51.338Z,12.67
2023-04-08T00:25:18.184Z,12.13
2023-04-08T00:27:45.187Z,13.27
2023-04-08T00:30:12.103Z,11.70
2023-04-08T00:32:38.989Z,12.70
2023-04-08T00:35:06.134Z,12.40
2023-04-08T00:37:33.066Z,12.67
2023-04-08T00:39:59.906Z,12.60
2023-04-08T00:42:26.913Z,13.30
2023-04-08T00:44:53.817Z,10.77
2023-04-08T00:47:20.814Z,9.40
2023-04-08T00:49:47.622Z,9.33
2023-04-08T00:52:14.554Z,12.33
2023-04-08T00:54:42.131Z,11.07
2023-04-08T00:57:09.172Z,12.77
2023-04-08T00:59:36.955Z,12.13
2023-04-08T01:02:16.436Z,11.63
2023-04-08T01:05:15.298Z,11.30
2023-04-08T01:07:48.804Z,13.03
2023-04-08T01:10:30.154Z,11.27
2023-04-08T01:13:01.661Z,13.97
2023-04-08T01:15:30.623Z,15.90
2023-04-08T01:18:00.704Z,10.57
2023-04-08T01:20:30.444Z,11.23
2023-04-08T01:23:00.918Z,10.83
2023-04-08T01:25:34.429Z,10.27
2023-04-08T01:28:15.574Z,10.40
2023-04-08T01:30:46.097Z,11.30
2023-04-08T01:33:16.606Z,11.80
2023-04-08T01:35:45.323Z,12.37
2023-04-08T01:38:19.583Z,12.23
2023-04-08T01:40:49.464Z,14.47
2023-04-08T01:43:18.900Z,12.17
2023-04-08T01:45:48.469Z,10.47
2023-04-08T01:48:16.276Z,12.10
2023-04-08T01:50:45.868Z,13.07
2023-04-08T01:53:13.972Z,12.83
2023-04-08T01:55:42.892Z,13.63
2023-04-08T01:58:22.324Z,14.10
2023-04-08T02:00:53.573Z,15.57
2023-04-08T02:03:25.576Z,13.03
2023-04-08T02:05:52.599Z,11.63
2023-04-08T02:08:19.442Z,14.67
2023-04-08T02:10:47.114Z,12.83
2023-04-08T02:13:14.332Z,14.33
2023-04-08T02:15:51.794Z,15.80
2023-04-08T02:18:29.659Z,14.67
2023-04-08T02:21:14.468Z,15.17
2023-04-08T02:23:49.238Z,13.87
2023-04-08T02:26:19.232Z,12.03
2023-04-08T02:28:50.012Z,14.33
2023-04-08T02:31:19.743Z,13.73
2023-04-08T02:33:48.809Z,10.77
2023-04-08T02:36:16.517Z,14.27
2023-04-08T02:38:49.792Z,11.57
2023-04-08T02:41:17.173Z,13.17
2023-04-08T02:43:43.962Z,13.00
2023-04-08T02:46:11.871Z,11.57
2023-04-08T02:48:38.707Z,14.90
2023-04-08T02:51:05.587Z,13.00
2023-04-08T02:53:32.421Z,12.90
2023-04-08T02:55:59.295Z,13.00
2023-04-08T02:58:26.244Z,9.90
2023-04-08T03:00:53.287Z,13.87
2023-04-08T03:03:20.230Z,14.07
2023-04-08T03:05:47.092Z,12.53
2023-04-08T03:08:13.861Z,13.53
2023-04-08T03:10:40.745Z,13.07
2023-04-08T03:13:07.624Z,14.23
2023-04-08T03:15:34.510Z,12.03
2023-04-08T03:18:01.645Z,13.27
2023-04-08T03:20:28.589Z,13.47
2023-04-08T03:22:55.403Z,13.97
2023-04-08T03:25:22.215Z,14.07
2023-04-08T03:27:48.983Z,12.30
2023-04-08T03:30:15.970Z,14.03
2023-04-08T03:32:43.128Z,12.83
2023-04-08T03:35:10.040Z,14.47
2023-04-08T03:37:37.068Z,14.53
2023-04-08T03:40:04.567Z,13.43
2023-04-08T03:42:32.033Z,13.70
2023-04-08T03:44:58.979Z,11.43
2023-04-08T03:47:26.393Z,14.00
2023-04-08T03:49:54.669Z,14.43
2023-04-08T03:52:21.738Z,14.73
2023-04-08T03:54:48.590Z,14.80
2023-04-08T03:57:15.983Z,15.93
2023-04-08T03:59:42.858Z,12.77
2023-04-08T04:02:09.696Z,14.60
2023-04-08T04:04:37.066Z,15.07
2023-04-08T04:07:03.989Z,14.07
2023-04-08T04:09:30.764Z,15.23
2023-04-08T04:11:57.578Z,14.33
2023-04-08T04:14:24.424Z,16.70
2023-04-08T04:16:51.183Z,14.83
2023-04-08T04:19:18.329Z,14.50
2023-04-08T04:21:45.171Z,13.63
2023-04-08T04:24:13.367Z,22.43
2023-04-08T04:26:42.955Z,15.47
2023-04-08T04:29:09.717Z,14.03
2023-04-08T04:31:36.590Z,15.77
2023-04-08T04:34:03.441Z,13.53
2023-04-08T04:36:31.384Z,15.87
2023-04-08T04:38:58.150Z,15.50
2023-04-08T04:41:24.931Z,14.97
2023-04-08T04:43:51.769Z,15.27
2023-04-08T04:46:18.578Z,12.07
2023-04-08T04:48:45.414Z,19.20
2023-04-08T04:51:12.253Z,15.70
2023-04-08T04:53:39.043Z,16.10
2023-04-08T04:56:06.370Z,17.63
2023-04-08T04:58:33.144Z,16.97
2023-04-08T05:00:59.933Z,17.13
2023-04-08T05:03:26.749Z,16.80
2023-04-08T05:05:54.506Z,17.93
2023-04-08T05:08:22.076Z,15.23
2023-04-08T05:10:50.584Z,14.47
2023-04-08T05:13:18.521Z,16.90
2023-04-08T05:15:48.554Z,19.93
2023-04-08T05:18:15.487Z,14.13
2023-04-08T05:20:42.324Z,17.63
2023-04-08T05:23:09.176Z,17.90
2023-04-08T05:25:36.135Z,15.93
2023-04-08T05:28:03.495Z,18.53
2023-04-08T05:30:30.954Z,18.47
2023-04-08T05:33:00.044Z,18.80
2023-04-08T05:35:27.889Z,15.33
2023-04-08T05:37:54.888Z,18.53
2023-04-08T05:40:21.817Z,18.67
2023-04-08T05:42:48.710Z,19.80
2023-04-08T05:45:16.186Z,18.07
2023-04-08T05:47:43.141Z,22.60
2023-04-08T05:50:11.280Z,18.47
2023-04-08T05:52:43.769Z,19.23
2023-04-08T05:55:12.129Z,17.50
2023-04-08T05:57:38.960Z,17.53
2023-04-08T06:00:09.309Z,18.87
2023-04-08T06:02:38.350Z,20.70
2023-04-08T06:05:06.442Z,19.33
2023-04-08T06:07:34.208Z,21.43
2023-04-08T06:10:01.252Z,18.63
2023-04-08T06:12:28.274Z,20.47
2023-04-08T06:14:56.573Z,23.40
2023-04-08T06:17:23.783Z,19.10
2023-04-08T06:19:51.066Z,19.67
2023-04-08T06:22:17.863Z,19.17
2023-04-08T06:24:47.451Z,20.63
2023-04-08T06:27:14.570Z,20.00
2023-04-08T06:29:42.985Z,20.20
2023-04-08T06:32:10.429Z,21.43
2023-04-08T06:34:37.533Z,22.20
2023-04-08T06:37:04.585Z,19.23
2023-04-08T06:39:31.472Z,21.90
2023-04-08T06:41:58.279Z,18.30
2023-04-08T06:44:37.798Z,19.27
2023-04-08T06:47:04.639Z,19.87
2023-04-08T06:49:31.788Z,19.00
2023-04-08T06:51:58.649Z,19.67
2023-04-08T06:54:25.577Z,20.73
2023-04-08T06:56:52.393Z,18.10
2023-04-08T06:59:19.215Z,19.90
2023-04-08T07:01:46.700Z,21.67
2023-04-08T07:04:13.667Z,17.63
2023-04-08T07:06:40.456Z,21.93
2023-04-08T07:09:07.856Z,18.73
2023-04-08T07:11:34.669Z,20.47
2023-04-08T07:14:01.470Z,19.17
2023-04-08T07:16:28.306Z,18.53
2023-04-08T07:18:55.556Z,16.20
2023-04-08T07:21:22.420Z,18.43
2023-04-08T07:23:49.251Z,17.50
2023-04-08T07:26:16.079Z,18.40
2023-04-08T07:28:43.047Z,18.00
2023-04-08T07:31:12.846Z,15.53
2023-04-08T07:33:39.752Z,15.90
2023-04-08T07:36:07.017Z,15.93
2023-04-08T07:38:33.851Z,17.53
2023-04-08T07:41:00.982Z,17.13
2023-04-08T07:43:27.919Z,22.67
2023-04-08T07:46:02.548Z,23.07
2023-04-08T07:48:34.020Z,21.53
2023-04-08T07:51:11.092Z,24.57
2023-04-08T07:53:40.383Z,22.57
2023-04-08T07:56:15.587Z,20.90
2023-04-08T07:58:42.846Z,18.67
2023-04-08T08:01:23.451Z,24.47
2023-04-08T08:03:52.855Z,23.30
2023-04-08T08:06:20.648Z,22.43
2023-04-08T08:08:47.534Z,22.83
2023-04-08T08:11:14.346Z,22.50
2023-04-08T08:13:41.186Z,24.30
2023-04-08T08:16:11.157Z,21.93
2023-04-08T08:18:39.970Z,23.50
2023-04-08T08:21:07.651Z,26.17
2023-04-08T08:23:34.564Z,27.50
2023-04-08T08:26:06.792Z,20.63
2023-04-08T08:28:33.835Z,22.00
2023-04-08T08:31:00.724Z,20.87
2023-04-08T08:33:27.676Z,19.30
2023-04-08T08:35:55.416Z,20.47
2023-04-08T08:38:22.270Z,18.57
2023-04-08T08:40:56.134Z,19.70
2023-04-08T08:43:24.728Z,17.53
2023-04-08T08:45:51.814Z,18.73
2023-04-08T08:48:19.013Z,21.60
2023-04-08T08:50:46.188Z,21.10
2023-04-08T08:53:13.386Z,42.47
2023-04-08T08:56:05.822Z,46.47
2023-04-08T08:58:28.482Z,44.80
2023-04-08T09:00:55.570Z,25.53
2023-04-08T09:03:25.688Z,21.40
2023-04-08T09:05:55.665Z,22.03
2023-04-08T09:08:38.449Z,24.17
2023-04-08T09:11:21.767Z,26.00
2023-04-08T09:13:49.051Z,23.23
2023-04-08T09:16:18.812Z,20.80
2023-04-08T09:18:48.890Z,24.30
2023-04-08T09:21:18.230Z,20.63
2023-04-08T09:23:49.295Z,19.27
2023-04-08T09:26:23.182Z,22.37
2023-04-08T09:29:18.244Z,22.23
2023-04-08T09:31:57.774Z,19.40
2023-04-08T09:34:27.212Z,20.57
2023-04-08T09:36:55.611Z,19.13
2023-04-08T09:39:22.827Z,23.40
2023-04-08T09:41:52.597Z,20.47
2023-04-08T09:44:21.962Z,21.00
2023-04-08T09:47:13.162Z,22.47
2023-04-08T09:49:49.864Z,17.83
2023-04-08T09:52:42.703Z,20.40
2023-04-08T09:55:13.267Z,19.33
2023-04-08T09:58:08.178Z,19.73
2023-04-08T10:00:43.119Z,19.73
2023-04-08T10:03:37.315Z,19.43
2023-04-08T10:06:04.674Z,18.57
2023-04-08T10:08:32.967Z,18.50
2023-04-08T10:10:59.893Z,22.90
2023-04-08T10:13:28.586Z,18.03
2023-04-08T10:16:17.637Z,16.83
2023-04-08T10:18:45.273Z,16.80
2023-04-08T10:21:37.577Z,17.73
2023-04-08T10:24:11.959Z,12.83
2023-04-08T10:26:45.164Z,12.40
2023-04-08T10:29:18.149Z,15.07
2023-04-08T10:31:46.773Z,13.03
2023-04-08T10:34:18.203Z,15.37
2023-04-08T10:36:48.766Z,13.13
2023-04-08T10:39:16.774Z,12.17
2023-04-08T10:41:49.202Z,10.90
2023-04-08T10:44:24.155Z,15.80
2023-04-08T10:46:53.744Z,10.17
2023-04-08T10:49:22.075Z,11.67
2023-04-08T10:51:49.293Z,9.07
2023-04-08T10:54:18.404Z,9.73
2023-04-08T10:56:51.157Z,9.13
2023-04-08T10:59:28.507Z,9.37
2023-04-08T11:01:55.578Z,8.80
2023-04-08T11:04:23.659Z,8.27
2023-04-08T11:06:51.451Z,9.33
2023-04-08T11:09:18.367Z,8.03
2023-04-08T11:11:46.658Z,10.17
2023-04-08T11:14:14.282Z,7.80
2023-04-08T11:16:41.473Z,8.13
2023-04-08T11:19:08.822Z,7.73
2023-04-08T11:21:37.413Z,8.07
2023-04-08T11:24:16.329Z,9.50
2023-04-08T11:26:43.659Z,10.13
2023-04-08T11:29:15.111Z,9.00
2023-04-08T11:31:44.093Z,10.03
2023-04-08T11:34:11.280Z,9.43
2023-04-08T11:36:41.546Z,11.27
2023-04-08T11:39:10.486Z,9.20
2023-04-08T11:41:41.615Z,11.07
2023-04-08T11:44:08.883Z,12.40
2023-04-08T11:46:36.278Z,10.87
2023-04-08T11:49:07.864Z,11.27
2023-04-08T11:51:54.797Z,11.17
2023-04-08T11:54:32.692Z,11.10
2023-04-08T11:57:03.106Z,10.17
2023-04-08T11:59:30.143Z,12.93
2023-04-08T12:01:57.437Z,11.30
2023-04-08T12:04:24.699Z,10.30
2023-04-08T12:06:52.320Z,10.80
2023-04-08T12:09:19.459Z,13.47
2023-04-08T12:11:46.610Z,11.93
2023-04-08T12:14:13.620Z,12.87
2023-04-08T12:16:40.565Z,12.53
2023-04-08T12:19:07.353Z,12.73
2023-04-08T12:21:34.548Z,9.63
2023-04-08T12:24:01.629Z,11.17
2023-04-08T12:26:28.397Z,9.07
2023-04-08T12:28:55.191Z,10.77
2023-04-08T12:31:22.639Z,9.23
2023-04-08T12:33:49.604Z,10.60
2023-04-08T12:36:17.181Z,8.70
2023-04-08T12:38:44.138Z,9.17
2023-04-08T12:41:11.114Z,8.37
2023-04-08T12:43:39.220Z,8.17
2023-04-08T12:46:06.361Z,7.70
2023-04-08T12:48:33.234Z,7.10
2023-04-08T12:51:00.305Z,7.53
2023-04-08T12:53:27.104Z,8.30
2023-04-08T12:55:57.078Z,7.10
2023-04-08T12:58:25.568Z,8.20
2023-04-08T13:00:52.471Z,24.30
2023-04-08T13:03:19.398Z,14.17
2023-04-08T13:05:46.252Z,11.43
2023-04-08T13:08:13.139Z,7.83
2023-04-08T13:10:41.883Z,10.97
2023-04-08T13:13:08.966Z,8.03
2023-04-08T13:15:35.756Z,7.37
2023-04-08T13:18:02.617Z,7.97
2023-04-08T13:20:29.513Z,5.90
2023-04-08T13:22:56.731Z,6.60
2023-04-08T13:25:23.527Z,7.43
2023-04-08T13:27:50.582Z,6.53
2023-04-08T13:30:17.584Z,7.13
2023-04-08T13:32:44.447Z,7.53
2023-04-08T13:35:11.354Z,7.00
2023-04-08T13:37:38.505Z,9.03
2023-04-08T13:40:06.327Z,8.83
2023-04-08T13:42:33.207Z,9.20
2023-04-08T13:45:00.363Z,7.43
2023-04-08T13:47:28.053Z,7.40
2023-04-08T13:49:54.904Z,7.33
2023-04-08T13:52:21.763Z,7.43
2023-04-08T14:05:24.123Z,9.00
2023-04-08T14:07:50.309Z,7.37
2023-04-08T14:10:16.729Z,7.10
2023-04-08T14:12:43.138Z,12.07
2023-04-08T14:15:09.723Z,7.70
2023-04-08T14:17:35.969Z,8.13
2023-04-08T14:20:03.167Z,8.60
2023-04-08T14:22:29.350Z,7.97
2023-04-08T14:24:55.479Z,8.73
2023-04-08T14:27:21.658Z,9.10
2023-04-08T14:29:47.783Z,10.00
2023-04-08T14:32:14.180Z,9.43
2023-04-08T14:34:40.317Z,9.53
2023-04-08T14:37:06.456Z,8.73
2023-04-08T14:39:32.624Z,9.30
2023-04-08T14:41:58.753Z,10.70
2023-04-08T14:44:25.227Z,24.40
2023-04-08T14:46:51.391Z,18.90
2023-04-08T14:49:17.589Z,16.90
2023-04-08T14:51:43.715Z,12.93
2023-04-08T14:54:09.972Z,16.03
2023-04-08T14:56:36.278Z,11.73
2023-04-08T14:59:02.415Z,10.37
2023-04-08T15:01:30.981Z,10.90
2023-04-08T15:03:57.321Z,9.83
2023-04-08T15:06:24.154Z,11.83
2023-04-08T15:08:50.423Z,11.03
2023-04-08T15:11:18.641Z,11.13
2023-04-08T15:13:44.965Z,10.57
2023-04-08T15:16:11.395Z,19.23
2023-04-08T15:18:37.906Z,10.50
2023-04-08T15:21:04.539Z,12.50
2023-04-08T15:23:31.200Z,12.57
2023-04-08T15:25:57.409Z,11.27
2023-04-08T15:28:23.792Z,10.47
2023-04-08T15:30:50.169Z,9.90
2023-04-08T15:33:16.379Z,10.63
2023-04-08T15:35:47.202Z,11.53
2023-04-08T15:38:13.446Z,13.20
2023-04-08T15:40:39.697Z,12.60
2023-04-08T15:43:05.993Z,13.03
2023-04-08T15:45:32.622Z,15.63
2023-04-08T15:47:58.817Z,13.60
2023-04-08T15:50:29.242Z,12.80
2023-04-08T15:52:56.313Z,13.40
2023-04-08T15:55:22.444Z,14.10
2023-04-08T15:57:48.629Z,14.03
2023-04-08T16:00:16.655Z,16.07
2023-04-08T16:02:43.713Z,13.37
2023-04-08T16:05:11.613Z,17.27
2023-04-08T16:07:37.808Z,14.97
2023-04-08T16:10:04.791Z,24.03
2023-04-08T16:12:34.377Z,15.30
2023-04-08T16:15:00.629Z,14.93
2023-04-08T16:17:27.348Z,13.97
2023-04-08T16:19:53.513Z,17.30
2023-04-08T16:22:19.715Z,14.70
2023-04-08T16:24:46.093Z,16.33
2023-04-08T16:27:12.293Z,17.33
2023-04-08T16:29:38.454Z,13.93
2023-04-08T16:32:04.992Z,13.60
2023-04-08T16:34:31.143Z,14.50
2023-04-08T16:36:57.334Z,14.03
2023-04-08T16:39:23.484Z,13.70
2023-04-08T16:41:49.699Z,15.67
2023-04-08T16:44:15.937Z,15.40
2023-04-08T16:46:42.581Z,15.37
2023-04-08T16:49:08.740Z,14.47
2023-04-08T16:51:35.148Z,14.53
2023-04-08T16:54:01.404Z,15.83
2023-04-08T16:56:28.169Z,15.93
2023-04-08T16:58:54.370Z,22.73
2023-04-08T17:01:20.565Z,17.53
2023-04-08T17:03:51.647Z,16.03
2023-04-08T17:06:18.189Z,16.30
2023-04-08T17:08:44.347Z,17.57
2023-04-08T17:11:13.586Z,17.63
2023-04-08T17:13:42.419Z,16.63
2023-04-08T17:16:16.922Z,17.47
2023-04-08T17:18:45.078Z,15.70
2023-04-08T17:21:13.217Z,17.33
2023-04-08T17:23:39.464Z,16.77
2023-04-08T17:26:09.868Z,17.13
2023-04-08T17:28:36.131Z,18.87
2023-04-08T17:31:02.728Z,17.93
2023-04-08T17:33:29.032Z,19.43
2023-04-08T17:35:55.333Z,16.57
2023-04-08T17:38:21.566Z,18.60
2023-04-08T17:40:47.975Z,17.77
2023-04-08T17:43:14.130Z,20.47
2023-04-08T17:45:40.286Z,17.00
2023-04-08T17:48:09.830Z,19.30
2023-04-08T17:50:36.425Z,19.63
2023-04-08T17:53:02.676Z,17.63
2023-04-08T17:55:29.151Z,17.37
2023-04-08T17:57:55.473Z,21.80
2023-04-08T18:00:21.787Z,19.13
2023-04-08T18:02:50.035Z,17.70
2023-04-08T18:05:16.852Z,15.93
2023-04-08T18:07:43.077Z,16.50
2023-04-08T18:10:09.692Z,17.00
2023-04-08T18:12:35.834Z,18.10
2023-04-08T18:15:02.451Z,21.37
2023-04-08T18:17:28.629Z,20.10
2023-04-08T18:19:54.829Z,20.30
2023-04-08T18:22:21.816Z,15.50
2023-04-08T18:24:48.228Z,13.73
2023-04-08T18:27:14.443Z,16.50
2023-04-08T18:29:40.565Z,17.73
2023-04-08T18:32:06.822Z,18.27
2023-04-08T18:34:33.046Z,13.97
2023-04-08T18:37:00.010Z,17.43
2023-04-08T18:39:26.831Z,17.53
2023-04-08T18:41:53.362Z,18.30
2023-04-08T18:44:19.644Z,19.70
2023-04-08T18:46:45.764Z,14.20
2023-04-08T18:49:11.927Z,21.03
2023-04-08T18:51:40.667Z,20.47
2023-04-08T18:54:06.939Z,17.03
2023-04-08T18:56:33.432Z,16.10
2023-04-08T18:58:59.570Z,17.60
2023-04-08T19:01:27.895Z,16.47
2023-04-08T19:03:54.221Z,19.67
2023-04-08T19:06:21.965Z,15.80
2023-04-08T19:08:48.389Z,21.00
2023-04-08T19:11:14.806Z,19.80
2023-04-08T19:13:41.165Z,16.70
2023-04-08T19:16:07.448Z,15.70
2023-04-08T19:18:33.591Z,34.43
2023-04-08T19:21:00.908Z,75.23
2023-04-08T19:23:27.061Z,87.13
2023-04-08T19:25:53.281Z,81.20
2023-04-08T19:28:20.099Z,82.63
2023-04-08T19:30:46.222Z,117.47
2023-04-08T19:33:13.288Z,118.97
2023-04-08T19:35:39.768Z,150.10
2023-04-08T19:38:05.952Z,142.67
2023-04-08T19:40:32.051Z,108.27
2023-04-08T19:42:58.226Z,72.30
2023-04-08T19:45:24.336Z,38.70
2023-04-08T19:47:50.573Z,53.73
2023-04-08T19:50:17.008Z,43.43
2023-04-08T19:52:43.137Z,49.07
2023-04-08T19:55:09.487Z,53.07
2023-04-08T19:57:36.356Z,54.13
2023-04-08T20:00:03.704Z,41.13
2023-04-08T20:02:32.981Z,36.07
2023-04-08T20:04:59.226Z,44.53
2023-04-08T20:07:25.426Z,43.97
2023-04-08T20:09:51.546Z,48.87
2023-04-08T20:12:17.678Z,35.03
2023-04-08T20:14:44.304Z,42.63
2023-04-08T20:17:11.843Z,54.07
2023-04-08T20:19:38.406Z,56.53
2023-04-08T20:22:04.541Z,49.20
2023-04-08T20:24:30.873Z,40.67
2023-04-08T20:26:58.220Z,41.47
2023-04-08T20:29:24.459Z,34.20
2023-04-08T20:31:51.100Z,33.50
2023-04-08T20:34:17.457Z,34.73
2023-04-08T20:36:43.603Z,42.80
2023-04-08T20:39:10.437Z,47.00
2023-04-08T20:41:36.862Z,55.77
2023-04-08T20:44:05.299Z,48.57
2023-04-08T20:46:32.018Z,37.43
2023-04-08T20:48:58.311Z,26.70
2023-04-08T20:51:24.493Z,29.53
2023-04-08T20:53:50.620Z,22.60
2023-04-08T20:56:16.746Z,20.17
2023-04-08T20:58:42.898Z,18.50
2023-04-08T21:01:09.396Z,14.67
2023-04-08T21:03:35.654Z,15.43
2023-04-08T21:06:01.878Z,17.27
2023-04-08T21:08:28.032Z,17.47
2023-04-08T21:10:54.427Z,20.30
2023-04-08T21:13:20.600Z,28.80
2023-04-08T21:15:46.976Z,34.70
2023-04-08T21:18:13.417Z,26.97
2023-04-08T21:20:40.269Z,26.77
2023-04-08T21:23:06.778Z,19.33
2023-04-08T21:25:33.362Z,19.87
2023-04-08T21:27:59.546Z,18.47
2023-04-08T21:30:25.952Z,29.17
2023-04-08T21:32:52.070Z,23.73
2023-04-08T21:35:18.484Z,20.47
2023-04-08T21:37:44.716Z,25.13
2023-04-08T21:40:12.620Z,20.67
2023-04-08T21:42:38.746Z,21.07
2023-04-08T21:45:05.668Z,23.33
2023-04-08T21:47:32.087Z,19.13
2023-04-08T21:49:58.398Z,23.10
2023-04-08T21:52:25.880Z,22.80
2023-04-08T21:54:52.342Z,23.20
2023-04-08T21:57:18.836Z,22.57
2023-04-08T21:59:45.076Z,14.63
2023-04-08T22:02:11.927Z,14.97
2023-04-08T22:04:38.333Z,17.03
2023-04-08T22:07:04.782Z,13.73
2023-04-08T22:09:30.894Z,16.93
2023-04-08T22:11:57.328Z,17.03
2023-04-08T22:14:23.684Z,18.87
2023-04-08T22:16:50.130Z,17.23
2023-04-08T22:19:16.785Z,17.73
2023-04-08T22:21:42.915Z,22.47
2023-04-08T22:24:09.442Z,18.47
2023-04-08T22:26:35.798Z,18.53
2023-04-08T22:29:02.946Z,19.07
2023-04-08T22:31:29.069Z,15.70
2023-04-08T22:33:55.490Z,16.43
2023-04-08T22:36:21.835Z,19.03
2023-04-08T22:38:47.977Z,16.13
2023-04-08T22:41:21.838Z,19.43
2023-04-08T22:43:49.359Z,14.70
2023-04-08T22:46:17.272Z,16.60
2023-04-08T22:48:48.203Z,18.43
2023-04-08T22:51:14.880Z,21.60
2023-04-08T22:53:41.230Z,19.83
2023-04-08T22:56:07.762Z,17.33
2023-04-08T22:58:33.935Z,29.03
2023-04-08T23:01:01.067Z,20.07
2023-04-08T23:03:27.249Z,18.37
2023-04-08T23:05:53.371Z,19.43
2023-04-08T23:08:19.536Z,15.23
2023-04-08T23:10:45.774Z,18.30
2023-04-08T23:13:13.270Z,21.03
2023-04-08T23:15:39.576Z,18.50
2023-04-08T23:18:06.108Z,18.67
2023-04-08T23:20:32.270Z,19.93
2023-04-08T23:22:58.398Z,13.97
2023-04-08T23:25:24.623Z,16.83
2023-04-08T23:27:50.771Z,17.83
2023-04-08T23:30:17.173Z,19.53
2023-04-08T23:32:43.339Z,14.60
2023-04-08T23:35:09.517Z,16.73
2023-04-08T23:37:35.634Z,20.90
2023-04-08T23:40:01.752Z,15.27
2023-04-08T23:42:27.886Z,16.73
2023-04-08T23:44:54.486Z,17.77
2023-04-08T23:47:21.174Z,23.13
2023-04-08T23:49:47.309Z,14.70
2023-04-08T23:52:13.461Z,22.30
2023-04-08T23:54:39.568Z,23.87
2023-04-08T23:57:05.965Z,21.50
2023-04-08T23:59:32.219Z,20.90
